Suez Canal Bridge — HODM — position and weather

sailwx.info

Track history (hours):
 
Tides and Currents Weather Stations Pressure Air Temp Water Temp Dewpoint Dewpoint Depression Visibility Wind Speed Wind Dir Waves Ship Positions

Suez Canal Bridge

Last reported at 2015-Jul-19 22:30 UTC. Time now 2015-Aug-31 17:49 UTC.
Position N 30°47' E 122°33'.
Warning: this ship's position is 42 days out of date.

Length 284.7 m; beam 40 m.

Type: Cargo ship. MMSI: 353704000.

Date/timePositionNaut miles runAvg speedWind from/ knotsBaromVisibWave heightAir tempDewpointWater temp
2015-Jul-19 22:30N 30°47' E 122°33'1814.4
2015-Jul-19 21:16N 31°04' E 122°30'811.8
2015-Jul-19 20:33N 31°06' E 122°21'1414.4
2015-Jul-19 19:33N 31°13' E 122°06'1413.8
2015-Jul-19 18:34N 31°16' E 121°51'1110.6
2015-Jul-19 17:33N 31°20' E 121°39'0 0.0
2015-Jul-19 16:33N 31°20' E 121°39'0 0.0
2015-Jul-19 15:27N 31°20' E 121°39'0 0.0
2015-Jul-19 14:33N 31°20' E 121°39'0 0.0
2015-Jul-19 13:27N 31°20' E 121°39'0 0.0
2015-Jul-19 12:33N 31°20' E 121°39'0 0.0
2015-Jul-19 11:30N 31°20' E 121°39'0 0.0
2015-Jul-19 10:33N 31°20' E 121°39'0 0.0
2015-Jul-19 09:24N 31°20' E 121°39'0 0.0
2015-Jul-19 08:33N 31°20' E 121°39'0 0.0
2015-Jul-19 07:33N 31°20' E 121°39'0 0.0
2015-Jul-19 06:33N 31°20' E 121°39'2 1.6
2015-Jul-19 05:33N 31°20' E 121°41'1010.4
2015-Jul-19 04:33N 31°16' E 121°52'40 9.5
2015-Jul-19 00:19N 31°07' E 122°38'27 8.4
2015-Jul-18 21:08N 30°47' E 122°59'6 9.6
2015-Jul-18 20:28N 30°41' E 122°60'8 8.9
2015-Jul-18 19:32N 30°35' E 122°53'1010.7
2015-Jul-18 18:33N 30°31' E 122°42'  
2015-Jul-15 12:27N 30°28' E 122°44'2412.2
2015-Jul-15 10:29N 30°12' E 123°05'27 9.4
2015-Jul-15 07:34N 29°50' E 122°46'10 9.9
2015-Jul-15 06:33N 29°44' E 122°37'10 9.9
2015-Jul-15 05:33N 29°42' E 122°26'1211.9
2015-Jul-15 04:33N 29°48' E 122°14'1110.7
2015-Jul-15 03:33N 29°53' E 122°03'0 0.1
2015-Jul-15 02:31N 29°53' E 122°03'0 0.0
2015-Jul-15 01:33N 29°53' E 122°03'0 0.0
2015-Jul-15 00:33N 29°53' E 122°03'0 0.0
2015-Jul-14 23:31N 29°53' E 122°03'0 0.0
2015-Jul-14 22:31N 29°53' E 122°03'0 0.0
2015-Jul-14 21:33N 29°53' E 122°03'0 0.0
2015-Jul-14 20:31N 29°53' E 122°03'0 0.0
2015-Jul-14 19:15N 29°53' E 122°03'0 0.0
2015-Jul-14 18:27N 29°53' E 122°03'0 0.0
2015-Jul-14 12:13N 29°53' E 122°03'0 0.0
2015-Jul-14 11:29N 29°53' E 122°03'6 3.3
2015-Jul-14 09:33N 29°54' E 122°11'22 3.5
2015-Jul-14 03:12N 29°38' E 122°29'0 0.2
2015-Jul-14 01:30N 29°39' E 122°29'0 0.0
2015-Jul-14 00:24N 29°39' E 122°29'0 0.1
2015-Jul-13 23:24N 29°38' E 122°29'0 0.0
2015-Jul-13 22:12N 29°38' E 122°29'0 0.0
2015-Jul-13 21:26N 29°38' E 122°29'0 0.1
2015-Jul-13 18:30N 29°38' E 122°29'0 0.0
2015-Jul-13 17:30N 29°38' E 122°29'0 0.1
2015-Jul-13 16:33N 29°38' E 122°29'7 7.1
2015-Jul-13 15:32N 29°32' E 122°33'1210.7
2015-Jul-13 14:28N 29°20' E 122°33'1311.2
2015-Jul-13 13:17N 29°07' E 122°33'26611.0
2015-Jul-12 13:14N 25°16' E 120°05'811.5
2015-Jul-12 12:33N 25°11' E 119°58'1211.8
2015-Jul-12 11:33N 25°02' E 119°49'1312.6
2015-Jul-12 10:32N 24°54' E 119°39'1313.2
2015-Jul-12 09:33N 24°45' E 119°28'1413.6
2015-Jul-12 08:33N 24°36' E 119°16'1313.4
2015-Jul-12 07:34N 24°28' E 119°05'1313.1
2015-Jul-12 06:33N 24°19' E 118°55'1212.4
2015-Jul-12 05:34N 24°10' E 118°45'1212.1
2015-Jul-12 04:34N 24°02' E 118°35'1212.0
2015-Jul-12 03:33N 23°54' E 118°25'1211.8
2015-Jul-12 02:32N 23°46' E 118°16'1211.6
2015-Jul-12 01:29N 23°37' E 118°06'2612.4
2015-Jul-11 23:26N 23°21' E 117°45'2813.8
2015-Jul-11 21:23N 22°59' E 117°25'1113.3
2015-Jul-11 20:33N 22°50' E 117°18'1413.4
2015-Jul-11 19:30N 22°38' E 117°10'  
Track history (hours):
 
Tides and Currents Weather Stations Pressure Air Temp Water Temp Dewpoint Dewpoint Depression Visibility Wind Speed Wind Dir Waves Ship Positions

Suez Canal Bridge

Last reported at 2015-Jul-19 22:30 UTC. Time now 2015-Aug-31 17:49 UTC.
Position N 30°47' E 122°33'.
Warning: this ship's position is 42 days out of date.

Length 284.7 m; beam 40 m.

Type: Cargo ship. MMSI: 353704000.

Date/timePositionNaut miles runAvg speedWind from/ knotsBaromVisibWave heightAir tempDewpointWater temp
2015-Jul-19 22:30N 30°47' E 122°33'1814.4
2015-Jul-19 21:16N 31°04' E 122°30'811.8
2015-Jul-19 20:33N 31°06' E 122°21'1414.4
2015-Jul-19 19:33N 31°13' E 122°06'1413.8
2015-Jul-19 18:34N 31°16' E 121°51'1110.6
2015-Jul-19 17:33N 31°20' E 121°39'0 0.0
2015-Jul-19 16:33N 31°20' E 121°39'0 0.0
2015-Jul-19 15:27N 31°20' E 121°39'0 0.0
2015-Jul-19 14:33N 31°20' E 121°39'0 0.0
2015-Jul-19 13:27N 31°20' E 121°39'0 0.0
2015-Jul-19 12:33N 31°20' E 121°39'0 0.0
2015-Jul-19 11:30N 31°20' E 121°39'0 0.0
2015-Jul-19 10:33N 31°20' E 121°39'0 0.0
2015-Jul-19 09:24N 31°20' E 121°39'0 0.0
2015-Jul-19 08:33N 31°20' E 121°39'0 0.0
2015-Jul-19 07:33N 31°20' E 121°39'0 0.0
2015-Jul-19 06:33N 31°20' E 121°39'2 1.6
2015-Jul-19 05:33N 31°20' E 121°41'1010.4
2015-Jul-19 04:33N 31°16' E 121°52'40 9.5
2015-Jul-19 00:19N 31°07' E 122°38'27 8.4
2015-Jul-18 21:08N 30°47' E 122°59'6 9.6
2015-Jul-18 20:28N 30°41' E 122°60'8 8.9
2015-Jul-18 19:32N 30°35' E 122°53'1010.7
2015-Jul-18 18:33N 30°31' E 122°42'  
2015-Jul-15 12:27N 30°28' E 122°44'2412.2
2015-Jul-15 10:29N 30°12' E 123°05'27 9.4
2015-Jul-15 07:34N 29°50' E 122°46'10 9.9
2015-Jul-15 06:33N 29°44' E 122°37'10 9.9
2015-Jul-15 05:33N 29°42' E 122°26'1211.9
2015-Jul-15 04:33N 29°48' E 122°14'1110.7
2015-Jul-15 03:33N 29°53' E 122°03'0 0.1
2015-Jul-15 02:31N 29°53' E 122°03'0 0.0
2015-Jul-15 01:33N 29°53' E 122°03'0 0.0
2015-Jul-15 00:33N 29°53' E 122°03'0 0.0
2015-Jul-14 23:31N 29°53' E 122°03'0 0.0
2015-Jul-14 22:31N 29°53' E 122°03'0 0.0
2015-Jul-14 21:33N 29°53' E 122°03'0 0.0
2015-Jul-14 20:31N 29°53' E 122°03'0 0.0
2015-Jul-14 19:15N 29°53' E 122°03'0 0.0
2015-Jul-14 18:27N 29°53' E 122°03'0 0.0
2015-Jul-14 12:13N 29°53' E 122°03'0 0.0
2015-Jul-14 11:29N 29°53' E 122°03'6 3.3
2015-Jul-14 09:33N 29°54' E 122°11'22 3.5
2015-Jul-14 03:12N 29°38' E 122°29'0 0.2
2015-Jul-14 01:30N 29°39' E 122°29'0 0.0
2015-Jul-14 00:24N 29°39' E 122°29'0 0.1
2015-Jul-13 23:24N 29°38' E 122°29'0 0.0
2015-Jul-13 22:12N 29°38' E 122°29'0 0.0
2015-Jul-13 21:26N 29°38' E 122°29'0 0.1
2015-Jul-13 18:30N 29°38' E 122°29'0 0.0
2015-Jul-13 17:30N 29°38' E 122°29'0 0.1
2015-Jul-13 16:33N 29°38' E 122°29'7 7.1
2015-Jul-13 15:32N 29°32' E 122°33'1210.7
2015-Jul-13 14:28N 29°20' E 122°33'1311.2
2015-Jul-13 13:17N 29°07' E 122°33'26611.0
2015-Jul-12 13:14N 25°16' E 120°05'811.5
2015-Jul-12 12:33N 25°11' E 119°58'1211.8
2015-Jul-12 11:33N 25°02' E 119°49'1312.6
2015-Jul-12 10:32N 24°54' E 119°39'1313.2
2015-Jul-12 09:33N 24°45' E 119°28'1413.6
2015-Jul-12 08:33N 24°36' E 119°16'1313.4
2015-Jul-12 07:34N 24°28' E 119°05'1313.1
2015-Jul-12 06:33N 24°19' E 118°55'1212.4
2015-Jul-12 05:34N 24°10' E 118°45'1212.1
2015-Jul-12 04:34N 24°02' E 118°35'1212.0
2015-Jul-12 03:33N 23°54' E 118°25'1211.8
2015-Jul-12 02:32N 23°46' E 118°16'1211.6
2015-Jul-12 01:29N 23°37' E 118°06'2612.4
2015-Jul-11 23:26N 23°21' E 117°45'2813.8
2015-Jul-11 21:23N 22°59' E 117°25'1113.3
2015-Jul-11 20:33N 22°50' E 117°18'1413.4
2015-Jul-11 19:30N 22°38' E 117°10'  

Dump ship's entire track history